Aérodrome :
LOGIN :

S'inscrire | Disclaimer

   EN    FR    IT 

 










Légende :    VFR   VFR Marginal   IFR   IFR Intensif   IFR Très Intensif
Visi : 
Plafond : 
>= 8 km
>= 3000ft
5 à 8 km
1000 à 3000 ft
1500m à 5 km
500 à 1000 ft
800 à 1500m
200 à 500 ft
< 800m
< 200 ft
Symboles :   Orages  Brouillard  Fortes neiges  Fortes précipitations  Vent > 20 kt
SIGMETs :   Divers  Orages  Givrage  Turbulence  Onde Orograph.  Cendres Volcan.






- Altitude de l'aérodrome : 33 ft
- Code IATA : MHZ


EGUN - RAF Mildenhall

DERNIER METAR :
  • 151212Z AUTO 04010G17KT 9999 -RA BKN027 08/08 A2964 RMK AO2 RAB1157 CIG 027V055 SLP041 $

METARs EXPIRÉS :
  • 151157Z AUTO 36009KT 9999 -RA FEW050 FEW060 08/08 A2964 RMK AO2 RAB57 SLP041 $
  • 151056Z AUTO 36005KT 9999 FEW110 08/08 A2966 RMK AO2 SLP047 T00790079 $
  • 150956Z AUTO 01006KT 9999 OVC100 07/07 A2966 RMK AO2 SLP047 T00720072 $

TAF TAF EGUN
Valide du 15 à 12h jusqu'au 16 à 18h UTC


151203Z 1512/1618 02010G20KT 9999 BKN080 QNH2963INS
TEMPO 1513/1517 01015G25KT
BECMG 1516/1517 02010G25KT 8000 -SHRA BKN010 610408 QNH2956INS
BECMG 1600/1601 05012KT 9999 NSW BKN010 QNH2958INS TX08/1513Z TN05/1605Z



MET'MAP, la Météo Aéronautique d'un coup d'oeil ! - Copyright ORBIFLY Décembre 2007 - Disclaimer

ORBIFLY MET'MAP TEAM :

Programmation & Développement : Alexandra Zaïnal
Conception & Développement : Baudouin d'Aumeries
Co-Programmation & Développement : Marc-Olivier Méhu
Soutien technique & logistique : Manuel Goepfert

Contact : metmap@orbifly.com




SOURCES & CREDITS :

   NOAA